Terminal Aerodrome Forecast
Issued by NWS Milwaukee/Sullivan, WI

Home | Current Version | Previous Version | Text Only | Print | Product List | Glossary On
Versions: 1 2 3 4 5 6 7 8 9 10 11 12 13 14 15 16 17 18 19 20 21 22 23 24 25 26 27 28 29 30 31 32 33 34 35 36 37 38 39
000
FTUS43 KMKX 180520
TAFMKE
TAF
KMKE 180520Z 1806/1912 27009KT P6SM SKC
     FM181300 21006KT 6SM BR SCT140
     FM181500 18008KT P6SM SCT120 BKN200
     FM181800 18015G25KT P6SM FEW015 SCT130
     FM182300 18016KT P6SM SCT150 WS020/19045KT
     FM190900 20009KT 6SM BR BKN060=

USA.gov is the U.S. government's official web portal to all federal, state and local government web resources and services.